Time;durP1;ratioP1;P1;durP2;ratioP2;P2;SDS_P1;SDS_P2;PMS_P1;PMS_P2;Temp;Humidity;BMP_temperature;BMP_pressure;BME280_temperature;BME280_humidity;BME280_pressure;Samples;Min_cycle;Max_cycle;Signal;HPM_P1;HPM_P2
2022/03/03 00:01:40;;;;;;;52.45;24.15;;;;;;;-3.92;54.64;98907.44;5112159;28;20024;-79
2022/03/03 00:04:06;;;;;;;56.63;24.85;;;;;;;-3.95;55.11;98903.31;5112352;28;20105;-78
2022/03/03 00:06:32;;;;;;;54.67;24.90;;;;;;;-3.97;55.15;98902.69;5112267;28;20031;-79
2022/03/03 00:08:57;;;;;;;61.42;25.60;;;;;;;-3.99;55.38;98898.50;5112211;28;20028;-79
2022/03/03 00:11:23;;;;;;;58.47;25.10;;;;;;;-4.00;55.31;98908.41;5111350;28;20139;-79
2022/03/03 00:13:48;;;;;;;55.40;24.67;;;;;;;-4.01;55.42;98904.06;5111660;28;20031;-78
2022/03/03 00:16:14;;;;;;;57.97;25.13;;;;;;;-4.01;55.09;98887.16;5111056;28;20456;-78
2022/03/03 00:18:39;;;;;;;74.63;28.40;;;;;;;-4.06;55.51;98890.41;5111324;28;20023;-78
2022/03/03 00:21:04;;;;;;;71.75;31.00;;;;;;;-4.07;55.53;98892.25;5092398;28;20046;-78
2022/03/03 00:23:32;;;;;;;76.05;30.45;;;;;;;-4.11;55.55;98893.69;5111512;28;20019;-78
2022/03/03 00:25:57;;;;;;;83.10;32.40;;;;;;;-4.13;55.14;98884.16;5109560;28;20035;-78
2022/03/03 00:28:23;;;;;;;86.93;35.58;;;;;;;-4.16;56.10;98877.34;5112321;28;20023;-78
2022/03/03 00:30:48;;;;;;;79.82;33.20;;;;;;;-4.16;56.20;98879.19;5111465;28;20043;-80
2022/03/03 00:33:15;;;;;;;73.88;29.10;;;;;;;-4.14;56.05;98885.16;5111392;28;20027;-81
2022/03/03 00:35:41;;;;;;;65.80;27.65;;;;;;;-4.15;55.51;98881.69;5111698;28;20034;-82
2022/03/03 00:38:06;;;;;;;61.58;26.25;;;;;;;-4.16;56.14;98884.53;5112165;28;20019;-83
2022/03/03 00:40:32;;;;;;;59.00;26.35;;;;;;;-4.18;56.04;98874.84;5111376;28;20172;-81
2022/03/03 00:42:57;;;;;;;65.20;27.02;;;;;;;-4.22;55.70;98881.59;5110906;28;20030;-82
2022/03/03 00:45:22;;;;;;;67.72;27.73;;;;;;;-4.25;56.25;98875.78;5110662;28;20161;-78
2022/03/03 00:47:49;;;;;;;66.93;27.20;;;;;;;-4.29;56.34;98870.00;5110654;28;20026;-77
2022/03/03 00:50:15;;;;;;;63.45;26.30;;;;;;;-4.30;55.82;98871.03;5110797;28;20073;-76
2022/03/03 00:52:41;;;;;;;70.65;27.30;;;;;;;-4.33;56.40;98866.03;5092558;28;20505;-76
2022/03/03 00:55:07;;;;;;;65.50;28.20;;;;;;;-4.35;56.71;98860.03;5110144;28;20118;-77
2022/03/03 00:57:33;;;;;;;59.17;26.10;;;;;;;-4.35;56.06;98865.41;5110290;28;20046;-80
2022/03/03 00:59:59;;;;;;;61.58;24.65;;;;;;;-4.35;56.83;98860.84;5110448;28;20023;-77
2022/03/03 01:02:24;;;;;;;53.72;23.58;;;;;;;-4.32;56.86;98859.66;5110352;28;20027;-76
2022/03/03 01:04:50;;;;;;;53.20;23.83;;;;;;;-4.32;56.63;98865.03;5110511;28;20036;-75
2022/03/03 01:07:15;;;;;;;57.13;24.23;;;;;;;-4.32;56.55;98856.97;5108719;28;20055;-78
2022/03/03 01:09:40;;;;;;;54.13;23.45;;;;;;;-4.32;56.90;98851.63;5091757;28;20042;-74
2022/03/03 01:12:06;;;;;;;52.88;23.42;;;;;;;-4.32;56.77;98848.94;5110054;28;20031;-78
2022/03/03 01:14:32;;;;;;;57.13;24.05;;;;;;;-4.32;56.43;98842.75;5110483;28;20076;-79
2022/03/03 01:16:57;;;;;;;54.63;23.63;;;;;;;-4.29;56.85;98842.38;5109802;28;20110;-79
2022/03/03 01:19:22;;;;;;;50.03;21.42;;;;;;;-4.27;56.65;98846.50;5109786;28;20032;-79
2022/03/03 01:21:48;;;;;;;48.25;22.42;;;;;;;-4.26;56.63;98844.66;5109993;28;20084;-79
2022/03/03 01:24:14;;;;;;;47.78;21.45;;;;;;;-4.24;56.71;98848.00;5110502;28;20080;-79
2022/03/03 01:26:39;;;;;;;50.65;20.85;;;;;;;-4.21;56.67;98844.94;5110049;28;20030;-79
2022/03/03 01:29:04;;;;;;;50.10;20.92;;;;;;;-4.20;57.07;98844.72;5110257;28;20103;-79
2022/03/03 01:31:30;;;;;;;53.13;23.10;;;;;;;-4.17;56.96;98843.53;5109916;28;20032;-79
2022/03/03 01:33:55;;;;;;;54.40;22.90;;;;;;;-4.16;57.14;98837.16;5109817;28;20051;-78
2022/03/03 01:36:21;;;;;;;58.63;23.48;;;;;;;-4.13;56.73;98830.56;5109699;28;20023;-79
2022/03/03 01:38:47;;;;;;;58.90;24.65;;;;;;;-4.12;56.82;98837.59;5109965;28;20375;-79
2022/03/03 01:41:12;;;;;;;56.38;23.55;;;;;;;-4.15;56.54;98836.13;5110175;28;20038;-79
2022/03/03 01:43:39;;;;;;;65.85;26.48;;;;;;;-4.16;56.88;98833.63;5111338;28;20015;-79
2022/03/03 01:46:05;;;;;;;57.95;25.77;;;;;;;-4.19;56.65;98835.66;5112692;28;20026;-79
2022/03/03 01:48:30;;;;;;;68.05;27.95;;;;;;;-4.19;56.44;98833.00;5112185;28;20471;-78
2022/03/03 01:50:56;;;;;;;67.03;28.08;;;;;;;-4.20;57.06;98830.53;5109727;28;20122;-78
2022/03/03 01:53:21;;;;;;;65.53;27.02;;;;;;;-4.20;56.97;98831.34;5110482;28;20069;-79
2022/03/03 01:55:47;;;;;;;64.07;29.00;;;;;;;-4.22;57.12;98832.56;5109786;28;20037;-79
2022/03/03 01:58:13;;;;;;;300.98;99.68;;;;;;;-4.24;57.01;98822.03;5110321;28;20063;-78
2022/03/03 02:00:39;;;;;;;150.27;55.47;;;;;;;-4.21;56.72;98828.88;5110133;28;20046;-78
2022/03/03 02:03:06;;;;;;;101.75;37.75;;;;;;;-4.22;56.80;98827.19;5110090;28;20031;-79
2022/03/03 02:05:31;;;;;;;78.93;32.17;;;;;;;-4.24;56.90;98826.56;5109606;28;20027;-77
2022/03/03 02:07:57;;;;;;;78.25;32.53;;;;;;;-4.28;56.54;98826.09;5110014;28;20024;-77
2022/03/03 02:10:23;;;;;;;73.20;30.40;;;;;;;-4.34;56.99;98825.03;5109850;28;20024;-77
2022/03/03 02:12:49;;;;;;;79.65;31.13;;;;;;;-4.37;56.84;98829.94;5109777;28;20052;-77
2022/03/03 02:15:19;;;;;;;74.55;31.08;;;;;;;-4.42;56.72;98816.28;5109680;28;20255;-77
2022/03/03 02:17:44;;;;;;;;;;;;;;;-4.44;56.66;98823.69;5091861;28;20361;-78
2022/03/03 02:20:30;;;;;;;69.93;29.40;;;;;;;-4.52;56.95;98812.06;5108987;28;19911;-78
2022/03/03 02:22:57;;;;;;;79.63;31.20;;;;;;;-4.54;57.27;98815.97;5109968;28;20024;-78
2022/03/03 02:25:25;;;;;;;76.75;30.83;;;;;;;-4.58;56.81;98804.78;5109970;28;20024;-77
2022/03/03 02:27:50;;;;;;;73.65;30.02;;;;;;;-4.61;56.86;98807.84;5109954;28;20024;-78
2022/03/03 02:30:17;;;;;;;81.72;32.50;;;;;;;-4.62;57.05;98806.19;5109959;28;20487;-77
2022/03/03 02:32:44;;;;;;;74.50;32.22;;;;;;;-4.64;57.42;98808.22;5109676;28;20464;-78
2022/03/03 02:35:10;;;;;;;84.30;32.95;;;;;;;-4.67;56.96;98801.41;5109264;28;20027;-78
2022/03/03 02:37:38;;;;;;;78.20;33.28;;;;;;;-4.70;57.27;98798.28;5109674;28;20519;-77
2022/03/03 02:40:05;;;;;;;79.53;33.65;;;;;;;-4.73;57.03;98802.16;5109663;28;20503;-77
2022/03/03 02:42:31;;;;;;;82.72;34.92;;;;;;;-4.77;57.15;98803.56;5109600;28;20468;-78
2022/03/03 02:44:56;;;;;;;84.82;35.65;;;;;;;-4.81;57.35;98795.09;5109423;28;20028;-78
2022/03/03 02:47:22;;;;;;;82.88;33.83;;;;;;;-4.87;57.68;98793.16;5109116;28;20028;-78
2022/03/03 02:49:47;;;;;;;84.15;34.22;;;;;;;-4.91;57.52;98794.53;5109488;28;20032;-77
2022/03/03 02:52:13;;;;;;;86.10;34.33;;;;;;;-4.95;58.13;98790.59;5110904;28;20015;-77
2022/03/03 02:54:38;;;;;;;88.10;35.30;;;;;;;-5.00;58.04;98785.81;5113022;28;20379;-77
2022/03/03 02:59:48;;;;;;;85.15;35.17;;;;;;;-5.08;58.58;98781.38;5112204;28;20046;-77
2022/03/03 03:02:13;;;;;;;88.40;35.25;;;;;;;-5.11;58.59;98779.09;5112933;28;20031;-77
2022/03/03 03:04:39;;;;;;;83.63;35.60;;;;;;;-5.12;59.04;98782.78;5113022;28;20019;-77
2022/03/03 03:07:04;;;;;;;84.05;34.35;;;;;;;-5.15;58.77;98785.84;5112397;28;20085;-77
2022/03/03 03:09:30;;;;;;;87.50;34.88;;;;;;;-5.14;59.07;98792.84;5113174;28;20098;-77
2022/03/03 03:11:55;;;;;;;83.75;33.05;;;;;;;-5.14;58.56;98782.13;5111347;28;20411;-77
2022/03/03 03:14:21;;;;;;;82.43;34.33;;;;;;;-5.16;58.82;98780.66;5112546;28;20143;-77
2022/03/03 03:16:46;;;;;;;81.30;34.67;;;;;;;-5.18;59.05;98786.19;5112028;28;20027;-77
2022/03/03 03:19:12;;;;;;;86.20;34.83;;;;;;;-5.20;59.12;98785.56;5112522;28;20031;-78
2022/03/03 03:21:37;;;;;;;84.88;34.67;;;;;;;-5.19;59.32;98779.19;5094003;28;20023;-77
2022/03/03 03:24:03;;;;;;;78.50;33.75;;;;;;;-5.18;58.82;98780.84;5093290;28;20024;-77
2022/03/03 03:26:29;;;;;;;76.20;32.00;;;;;;;-5.16;59.06;98773.47;5112136;28;20031;-77
2022/03/03 03:28:54;;;;;;;80.32;32.25;;;;;;;-5.12;59.29;98774.75;5093973;28;20107;-77
2022/03/03 03:31:20;;;;;;;75.93;31.85;;;;;;;-5.05;59.08;98782.84;5111838;28;20037;-77
2022/03/03 03:33:46;;;;;;;76.88;32.22;;;;;;;-4.99;59.27;98781.28;5113003;28;20042;-78
2022/03/03 03:36:11;;;;;;;80.28;31.60;;;;;;;-4.94;58.93;98774.34;5113254;28;20051;-78
2022/03/03 03:38:37;;;;;;;84.20;33.50;;;;;;;-4.87;59.33;98768.22;5113471;28;20028;-77
2022/03/03 03:41:02;;;;;;;98.78;35.40;;;;;;;-4.82;58.92;98773.84;5112696;28;20448;-77
2022/03/03 03:43:28;;;;;;;109.18;36.25;;;;;;;-4.76;59.36;98773.09;5109643;28;20039;-77
2022/03/03 03:45:53;;;;;;;100.68;38.00;;;;;;;-4.74;59.08;98776.41;5111147;28;20031;-77
2022/03/03 03:48:19;;;;;;;92.43;36.70;;;;;;;-4.68;59.43;98772.16;5112141;28;20373;-77
2022/03/03 03:50:44;;;;;;;94.82;40.50;;;;;;;-4.65;59.17;98761.06;5112426;28;20034;-77
2022/03/03 03:53:10;;;;;;;89.90;39.97;;;;;;;-4.61;59.43;98766.88;5113396;28;20028;-78
2022/03/03 03:55:36;;;;;;;95.15;39.67;;;;;;;-4.55;59.57;98763.44;5112847;28;20433;-78
2022/03/03 03:58:02;;;;;;;86.20;40.35;;;;;;;-4.53;59.11;98764.91;5112854;28;20135;-77
2022/03/03 04:00:28;;;;;;;90.72;39.42;;;;;;;-4.52;58.98;98760.38;5112298;28;20034;-78
2022/03/03 04:02:53;;;;;;;82.05;36.72;;;;;;;-4.53;59.11;98762.22;5112232;28;20047;-77
2022/03/03 04:05:19;;;;;;;85.85;36.25;;;;;;;-4.55;59.56;98758.91;5112468;28;20445;-78
2022/03/03 04:07:44;;;;;;;83.32;35.40;;;;;;;-4.57;59.61;98752.91;5113265;28;20031;-78
2022/03/03 04:10:11;;;;;;;76.78;34.25;;;;;;;-4.57;59.64;98738.72;5112626;28;20020;-78
2022/03/03 04:12:37;;;;;;;79.90;34.30;;;;;;;-4.58;59.06;98732.50;5112495;28;20133;-78
2022/03/03 04:15:03;;;;;;;82.15;34.97;;;;;;;-4.60;59.02;98745.25;5112053;28;20395;-77
2022/03/03 04:17:28;;;;;;;82.00;35.75;;;;;;;-4.60;59.65;98734.56;5112390;28;20032;-78
2022/03/03 04:19:54;;;;;;;79.28;34.58;;;;;;;-4.60;59.59;98733.75;5093823;28;20035;-77
2022/03/03 04:22:20;;;;;;;84.72;35.15;;;;;;;-4.63;59.65;98726.91;5112523;28;20103;-77
2022/03/03 04:24:46;;;;;;;77.30;33.15;;;;;;;-4.65;59.47;98720.91;5112648;28;20027;-77
2022/03/03 04:27:11;;;;;;;79.55;33.08;;;;;;;-4.69;59.23;98717.00;5111933;28;20042;-77
2022/03/03 04:29:37;;;;;;;77.55;30.80;;;;;;;-4.68;59.71;98715.94;5112405;28;20473;-77
2022/03/03 04:32:03;;;;;;;74.18;30.52;;;;;;;-4.67;59.86;98715.75;5112091;28;20031;-77
2022/03/03 04:34:28;;;;;;;72.03;30.27;;;;;;;-4.69;59.30;98714.31;5093688;28;20028;-77
2022/03/03 04:36:54;;;;;;;70.28;30.58;;;;;;;-4.76;59.51;98719.56;5111969;28;20038;-77
2022/03/03 04:39:19;;;;;;;74.97;31.08;;;;;;;-4.85;59.46;98718.03;5112299;28;20032;-77
2022/03/03 04:41:45;;;;;;;76.40;32.05;;;;;;;-4.93;59.45;98714.50;5111861;28;20055;-77
2022/03/03 04:44:10;;;;;;;80.18;32.50;;;;;;;-4.99;59.24;98722.41;5112201;28;20459;-78
2022/03/03 04:46:36;;;;;;;76.10;33.20;;;;;;;-5.09;59.80;98722.72;5111832;28;20042;-78
2022/03/03 04:49:03;;;;;;;84.38;34.17;;;;;;;-5.18;59.70;98731.88;5111371;28;20076;-78
2022/03/03 04:51:32;;;;;;;89.10;35.97;;;;;;;-5.26;59.80;98730.97;5111180;28;20028;-77
2022/03/03 04:53:57;;;;;;;89.03;37.28;;;;;;;-5.31;59.90;98729.88;5111279;28;20024;-77
2022/03/03 04:56:23;;;;;;;109.47;41.28;;;;;;;-5.35;60.14;98721.41;5090386;28;20039;-77
2022/03/03 04:58:49;;;;;;;125.65;46.53;;;;;;;-5.41;59.77;98712.25;5111394;28;20047;-77
2022/03/03 05:01:16;;;;;;;187.38;62.65;;;;;;;-5.42;60.12;98720.50;5111697;28;20039;-78
2022/03/03 05:03:41;;;;;;;154.07;53.50;;;;;;;-5.43;60.05;98716.97;5111690;28;20024;-77
2022/03/03 05:06:06;;;;;;;180.70;66.90;;;;;;;-5.44;60.85;98717.97;5111679;28;20031;-77
2022/03/03 05:08:32;;;;;;;249.20;87.20;;;;;;;-5.47;60.63;98720.22;5111753;28;20034;-77
2022/03/03 05:10:57;;;;;;;232.88;86.07;;;;;;;-5.48;60.97;98722.03;5111440;28;20028;-77
2022/03/03 05:13:23;;;;;;;233.88;82.38;;;;;;;-5.46;61.19;98716.53;5110946;28;20065;-77
2022/03/03 05:15:48;;;;;;;233.82;81.10;;;;;;;-5.45;61.35;98710.16;5111577;28;20099;-77
2022/03/03 05:18:14;;;;;;;177.45;62.15;;;;;;;-5.41;61.40;98709.59;5111448;28;20554;-78
2022/03/03 05:20:39;;;;;;;154.55;58.65;;;;;;;-5.32;61.43;98710.34;5111425;28;20034;-77
2022/03/03 05:23:05;;;;;;;130.13;50.45;;;;;;;-5.27;61.82;98713.25;5111647;28;20038;-77
2022/03/03 05:25:30;;;;;;;154.60;58.70;;;;;;;-5.21;61.56;98716.19;5111325;28;20448;-77
2022/03/03 05:27:58;;;;;;;127.88;48.00;;;;;;;-5.18;61.92;98719.34;5111725;28;20110;-77
2022/03/03 05:30:23;;;;;;;114.00;43.72;;;;;;;-5.15;61.91;98712.78;5111193;28;20036;-77
2022/03/03 05:32:49;;;;;;;117.57;44.65;;;;;;;-5.11;62.20;98717.59;5111077;28;20088;-78
2022/03/03 05:35:15;;;;;;;94.97;39.03;;;;;;;-5.03;63.86;98726.47;5111131;28;20023;-78
2022/03/03 05:37:41;;;;;;;100.18;41.55;;;;;;;-4.96;62.87;98714.88;5110003;28;20038;-77
2022/03/03 05:40:07;;;;;;;91.95;38.50;;;;;;;-4.89;62.73;98719.47;5111092;28;20077;-77
2022/03/03 05:42:33;;;;;;;100.07;39.70;;;;;;;-4.83;62.63;98711.50;5110829;28;20028;-78
2022/03/03 05:44:58;;;;;;;91.50;38.17;;;;;;;-4.79;62.30;98706.56;5110681;28;20039;-77
2022/03/03 05:47:28;;;;;;;100.70;39.78;;;;;;;-4.75;62.59;98705.19;5110836;28;20023;-78
2022/03/03 05:49:55;;;;;;;93.68;37.03;;;;;;;-4.70;62.83;98710.78;5110482;28;20032;-77
2022/03/03 05:52:21;;;;;;;93.70;36.97;;;;;;;-4.61;62.65;98716.03;5110970;28;20035;-78
2022/03/03 05:54:47;;;;;;;90.57;39.10;;;;;;;-4.58;63.03;98708.44;5111162;28;20032;-78
2022/03/03 05:57:27;;;;;;;100.55;41.45;;;;;;;-4.46;62.71;98703.38;5091585;28;20081;-78
2022/03/03 05:59:53;;;;;;;101.10;40.67;;;;;;;-4.36;62.73;98709.25;5108650;28;20031;-78
2022/03/03 06:02:20;;;;;;;108.93;42.85;;;;;;;-4.31;62.75;98708.69;5111122;28;20102;-78
2022/03/03 06:04:48;;;;;;;109.32;44.00;;;;;;;-4.26;62.67;98708.09;5092383;28;20038;-78
2022/03/03 06:07:24;;;;;;;112.88;42.92;;;;;;;-4.17;62.75;98704.25;5091465;28;20032;-78
2022/03/03 06:09:52;;;;;;;109.05;43.15;;;;;;;-4.10;62.90;98707.81;5110745;28;20023;-78
2022/03/03 06:12:25;;;;;;;118.88;43.08;;;;;;;-4.06;62.15;98702.88;5110408;28;20533;-78
2022/03/03 06:15:01;;;;;;;143.25;49.70;;;;;;;-3.99;62.61;98701.06;5111219;28;20107;-78
2022/03/03 06:17:26;;;;;;;130.35;45.50;;;;;;;-3.94;62.98;98709.34;5108077;28;20473;-78
2022/03/03 06:19:52;;;;;;;120.43;43.00;;;;;;;-3.90;62.87;98707.09;5110621;28;20026;-78
2022/03/03 06:22:19;;;;;;;108.32;41.65;;;;;;;-3.85;62.27;98706.50;5111049;28;20027;-79
2022/03/03 06:24:45;;;;;;;100.07;41.25;;;;;;;-3.84;62.45;98700.97;5111307;28;20027;-78
2022/03/03 06:27:12;;;;;;;98.60;39.35;;;;;;;-3.82;62.57;98703.44;5114318;28;20047;-79
2022/03/03 06:29:38;;;;;;;101.60;41.95;;;;;;;-3.78;62.76;98700.19;5115106;28;20027;-78
2022/03/03 06:32:04;;;;;;;92.45;40.05;;;;;;;-3.69;62.93;98708.88;5114403;28;20036;-78
2022/03/03 06:34:30;;;;;;;93.85;40.33;;;;;;;-3.60;62.57;98710.38;5115515;28;20031;-78
2022/03/03 06:36:55;;;;;;;93.80;38.13;;;;;;;-3.57;62.39;98711.81;5114903;28;20028;-79
2022/03/03 06:39:21;;;;;;;107.68;44.92;;;;;;;-3.55;62.51;98711.66;5114665;28;20098;-78
2022/03/03 06:41:46;;;;;;;109.25;45.33;;;;;;;-3.52;63.04;98714.75;5114310;28;20083;-78
2022/03/03 06:44:12;;;;;;;91.90;39.67;;;;;;;-3.39;62.48;98705.13;5115120;28;20087;-78
2022/03/03 06:46:38;;;;;;;91.03;38.97;;;;;;;-3.36;62.64;98707.41;5114414;28;20028;-78
2022/03/03 06:49:05;;;;;;;95.32;38.78;;;;;;;-3.32;62.63;98706.78;5114467;28;20075;-78
2022/03/03 06:51:39;;;;;;;86.20;36.55;;;;;;;-3.30;62.52;98704.75;5114632;28;20030;-78
2022/03/03 06:54:06;;;;;;;82.38;35.53;;;;;;;-3.29;62.44;98701.03;5115141;28;20045;-78
2022/03/03 06:56:35;;;;;;;89.53;36.25;;;;;;;-3.23;62.96;98706.63;5113997;28;20479;-78
2022/03/03 06:59:01;;;;;;;96.20;35.95;;;;;;;-3.15;63.96;98715.31;5114401;28;20495;-77
2022/03/03 07:01:28;;;;;;;104.20;38.35;;;;;;;-3.05;63.08;98703.38;5114482;28;20031;-78
2022/03/03 07:03:56;;;;;;;97.63;38.65;;;;;;;-2.98;62.86;98698.88;5114813;28;20028;-79
2022/03/03 07:06:22;;;;;;;78.50;32.08;;;;;;;-2.86;62.90;98704.47;5114031;28;20028;-79
2022/03/03 07:08:53;;;;;;;92.97;38.78;;;;;;;-2.74;63.00;98705.53;5114446;28;20460;-78
2022/03/03 07:11:19;;;;;;;85.13;35.72;;;;;;;-2.58;63.21;98706.16;5095212;28;20047;-78
2022/03/03 07:13:46;;;;;;;87.53;36.63;;;;;;;-2.49;63.00;98702.25;5094635;28;20369;-79
2022/03/03 07:16:23;;;;;;;84.75;37.38;;;;;;;-2.41;62.54;98699.38;5113657;28;20015;-78
2022/03/03 07:18:54;;;;;;;79.70;33.90;;;;;;;-2.31;62.78;98698.16;5113938;28;20030;-79
2022/03/03 07:22:01;;;;;;;81.20;34.90;;;;;;;-2.16;62.76;98695.25;5114124;28;20023;-79
2022/03/03 07:24:30;;;;;;;79.78;32.88;;;;;;;-2.04;62.39;98695.44;5114478;28;20033;-78
2022/03/03 07:26:59;;;;;;;85.97;36.25;;;;;;;-2.07;62.13;98690.47;5113531;28;20024;-79
2022/03/03 07:29:28;;;;;;;94.47;37.97;;;;;;;-2.08;62.19;98689.66;5096146;28;20107;-78
2022/03/03 07:31:59;;;;;;;79.53;35.33;;;;;;;-2.01;62.15;98689.66;5113105;28;20063;-79
2022/03/03 07:34:33;;;;;;;74.07;33.25;;;;;;;-1.89;62.26;98690.69;5113468;28;20043;-78
2022/03/03 07:37:10;;;;;;;80.30;34.70;;;;;;;-1.78;62.38;98693.75;5094287;28;20588;-79
2022/03/03 07:39:45;;;;;;;78.25;33.63;;;;;;;-1.66;62.06;98697.44;5114045;28;20038;-79
2022/03/03 07:42:13;;;;;;;68.53;28.35;;;;;;;-1.57;61.82;98692.66;5113983;28;20034;-78
2022/03/03 07:44:39;;;;;;;75.88;34.00;;;;;;;-1.54;61.36;98693.06;5114002;28;20028;-78
2022/03/03 07:47:07;;;;;;;82.68;36.95;;;;;;;-1.52;61.51;98698.22;5113538;28;20028;-78
2022/03/03 07:49:33;;;;;;;76.35;34.50;;;;;;;-1.45;61.53;98698.22;5095632;28;20031;-79
2022/03/03 07:51:58;;;;;;;77.28;33.60;;;;;;;-1.40;61.31;98693.84;5112704;28;20034;-78
2022/03/03 07:54:24;;;;;;;78.07;34.03;;;;;;;-1.34;61.33;98689.47;5114546;28;20556;-79
2022/03/03 07:56:55;;;;;;;73.95;33.22;;;;;;;-1.25;61.17;98696.28;5113183;28;20031;-78
2022/03/03 07:59:25;;;;;;;97.40;41.63;;;;;;;-1.19;61.08;98691.88;5113256;28;20044;-79
2022/03/03 08:01:54;;;;;;;86.22;35.78;;;;;;;-1.17;61.03;98694.38;5113097;28;20492;-78
2022/03/03 08:04:26;;;;;;;73.07;33.35;;;;;;;-1.09;60.83;98692.25;5113243;28;20484;-79
2022/03/03 08:06:55;;;;;;;76.88;34.22;;;;;;;-1.04;60.58;98688.94;5113834;28;20102;-78
2022/03/03 08:09:22;;;;;;;79.73;35.40;;;;;;;-0.95;60.59;98679.56;5113602;28;20027;-79
2022/03/03 08:11:51;;;;;;;74.28;32.38;;;;;;;-0.85;60.74;98678.28;5113005;28;20074;-79
2022/03/03 08:14:17;;;;;;;83.93;35.47;;;;;;;-0.79;60.35;98674.72;5113446;28;20476;-78
2022/03/03 08:16:45;;;;;;;81.82;36.92;;;;;;;-0.71;60.33;98668.22;5113506;28;20050;-78
2022/03/03 08:19:11;;;;;;;85.63;36.17;;;;;;;-0.67;59.94;98673.00;5112752;28;20028;-78
2022/03/03 08:21:37;;;;;;;71.38;33.35;;;;;;;-0.59;59.82;98677.28;5113110;28;20029;-78
2022/03/03 08:24:02;;;;;;;80.82;35.33;;;;;;;-0.54;59.72;98673.91;5113305;28;20051;-78
2022/03/03 08:26:30;;;;;;;87.65;39.28;;;;;;;-0.50;59.46;98683.22;5112928;28;20425;-78
2022/03/03 08:28:55;;;;;;;104.47;45.38;;;;;;;-0.40;59.23;98677.34;5094061;28;20377;-78
2022/03/03 08:31:31;;;;;;;80.25;35.90;;;;;;;-0.28;59.48;98667.50;5093001;28;20025;-78
2022/03/03 08:34:03;;;;;;;72.78;32.97;;;;;;;-0.26;59.28;98676.19;5111994;28;20039;-79
2022/03/03 08:36:44;;;;;;;75.38;33.10;;;;;;;-0.27;59.16;98674.53;5112604;28;20135;-77
2022/03/03 08:39:12;;;;;;;74.20;33.50;;;;;;;-0.22;58.89;98676.59;5113993;28;20441;-80
2022/03/03 08:41:39;;;;;;;77.22;33.63;;;;;;;-0.13;58.90;98679.81;5114715;28;20371;-80
2022/03/03 08:44:07;;;;;;;68.05;31.05;;;;;;;-0.04;58.72;98670.41;5112869;28;20095;-80
2022/03/03 08:46:35;;;;;;;73.82;33.45;;;;;;;0.08;58.89;98667.81;5114540;28;20031;-81
2022/03/03 08:49:03;;;;;;;67.97;31.63;;;;;;;0.22;58.41;98673.91;5114489;28;20023;-81
2022/03/03 08:51:29;;;;;;;62.15;27.40;;;;;;;0.36;58.28;98664.63;5118049;28;20388;-80
2022/03/03 08:53:55;;;;;;;57.75;26.48;;;;;;;0.42;57.43;98658.31;5113374;28;20035;-78
2022/03/03 08:56:22;;;;;;;59.13;26.88;;;;;;;0.53;58.09;98664.00;5109272;28;20023;-77
2022/03/03 08:58:48;;;;;;;61.10;29.00;;;;;;;0.61;57.52;98654.78;5109489;28;20036;-80
2022/03/03 09:01:13;;;;;;;60.47;27.83;;;;;;;0.72;57.31;98656.72;5105862;28;20095;-77
2022/03/03 09:03:40;;;;;;;59.35;28.35;;;;;;;0.84;57.28;98654.91;5104878;27;20456;-80
2022/03/03 09:06:06;;;;;;;46.88;23.85;;;;;;;0.95;57.27;98655.19;5106237;28;20031;-75
2022/03/03 09:08:32;;;;;;;47.97;22.75;;;;;;;0.98;55.97;98652.03;5110149;28;20031;-77
2022/03/03 09:10:57;;;;;;;49.70;22.58;;;;;;;1.02;55.67;98658.59;5110997;28;20031;-81
2022/03/03 09:13:23;;;;;;;44.67;23.17;;;;;;;1.05;55.16;98663.53;5113266;27;20377;-81
2022/03/03 09:15:49;;;;;;;45.03;22.27;;;;;;;1.07;55.35;98649.81;5110577;28;20046;-78
2022/03/03 09:18:15;;;;;;;39.00;20.60;;;;;;;1.16;55.68;98653.84;5107014;28;20038;-81
2022/03/03 09:20:40;;;;;;;59.15;27.63;;;;;;;1.28;54.74;98654.69;5109784;28;20027;-77
2022/03/03 09:23:05;;;;;;;48.25;23.10;;;;;;;1.42;54.87;98655.34;5109873;28;20023;-77
2022/03/03 09:25:31;;;;;;;37.03;19.73;;;;;;;1.52;54.38;98659.34;5109687;28;20038;-82
2022/03/03 09:27:57;;;;;;;41.33;19.67;;;;;;;1.59;53.10;98665.47;5090909;28;20024;-82
2022/03/03 09:30:22;;;;;;;44.78;21.50;;;;;;;1.64;53.00;98657.50;5109834;28;20023;-77
2022/03/03 09:32:48;;;;;;;45.28;22.15;;;;;;;1.70;52.78;98661.97;5108791;28;20047;-79
2022/03/03 09:35:14;;;;;;;44.58;21.10;;;;;;;1.83;51.87;98658.22;5109236;27;20092;-83
2022/03/03 09:37:40;;;;;;;33.03;17.20;;;;;;;1.97;51.67;98655.28;5090404;28;20547;-73
2022/03/03 09:40:09;;;;;;;39.90;19.90;;;;;;;2.10;52.21;98648.81;5107938;28;20027;-78
2022/03/03 09:42:34;;;;;;;41.92;21.30;;;;;;;2.23;51.62;98656.69;5109195;28;20034;-83
2022/03/03 09:45:06;;;;;;;34.45;18.77;;;;;;;2.34;50.75;98660.44;5110990;27;20019;-84
2022/03/03 09:47:35;;;;;;;39.53;19.58;;;;;;;2.37;50.64;98662.69;5107313;28;20076;-78
2022/03/03 09:50:01;;;;;;;43.45;22.25;;;;;;;2.34;49.46;98652.31;5105453;28;20102;-78
2022/03/03 09:52:28;;;;;;;50.38;25.00;;;;;;;2.29;49.54;98660.34;5106852;28;20463;-79
2022/03/03 09:54:55;;;;;;;50.92;25.48;;;;;;;2.30;49.86;98649.25;5108765;28;20028;-83
2022/03/03 09:57:21;;;;;;;49.22;26.40;;;;;;;2.36;50.15;98659.13;5089214;28;20056;-81
2022/03/03 09:59:47;;;;;;;52.13;26.35;;;;;;;2.47;49.82;98656.66;5105256;28;20028;-83
2022/03/03 10:02:14;;;;;;;62.40;30.45;;;;;;;2.52;50.03;98656.78;5106996;28;20024;-76
2022/03/03 10:04:40;;;;;;;72.43;33.38;;;;;;;2.62;49.79;98661.56;5108488;28;20077;-81
2022/03/03 10:07:08;;;;;;;66.13;32.00;;;;;;;2.72;50.13;98664.50;5107091;28;20031;-81
2022/03/03 10:12:23;;;;;;;66.43;32.92;;;;;;;2.94;48.76;98652.97;5105794;28;20046;-78
2022/03/03 10:14:50;;;;;;;76.97;37.53;;;;;;;2.95;49.13;98654.63;5106184;28;20020;-73
2022/03/03 10:17:16;;;;;;;65.70;34.15;;;;;;;3.09;48.71;98652.44;5105420;28;20053;-80
2022/03/03 10:19:53;;;;;;;51.05;27.80;;;;;;;3.25;49.58;98646.25;5107908;28;20028;-78
2022/03/03 10:22:43;;;;;;;52.83;26.83;;;;;;;3.40;49.43;98648.41;5107809;28;20114;-77
2022/03/03 10:25:09;;;;;;;;;;;;;;;3.53;49.21;98644.56;5108111;28;20051;-79
2022/03/03 10:27:34;;;;;;;56.78;26.73;;;;;;;3.64;48.94;98639.31;5107609;28;19927;-79
2022/03/03 10:30:01;;;;;;;49.63;25.98;;;;;;;3.68;49.03;98637.75;5108298;28;20459;-76
2022/03/03 10:32:26;;;;;;;48.33;26.10;;;;;;;3.78;49.10;98635.22;5108016;28;20023;-77
2022/03/03 10:34:56;;;;;;;44.72;23.52;;;;;;;3.81;48.20;98634.72;5108636;28;20026;-77
2022/03/03 10:37:23;;;;;;;44.75;23.88;;;;;;;3.83;47.56;98631.75;5088342;28;20098;-78
2022/03/03 10:40:00;;;;;;;49.30;24.35;;;;;;;3.91;47.04;98623.19;5107359;28;20533;-78
2022/03/03 10:42:26;;;;;;;36.67;20.02;;;;;;;3.97;45.68;98632.22;5108943;28;20373;-77
2022/03/03 10:45:11;;;;;;;50.05;24.92;;;;;;;4.04;45.06;98632.88;5109333;28;20027;-81
2022/03/03 10:47:36;;;;;;;39.90;22.27;;;;;;;4.03;45.89;98623.09;5107800;28;20391;-85
2022/03/03 10:50:03;;;;;;;40.38;22.23;;;;;;;3.97;44.56;98619.50;5109218;28;20032;-85
2022/03/03 10:52:32;;;;;;;48.38;24.92;;;;;;;3.83;44.47;98619.00;5109376;28;20106;-85
2022/03/03 10:55:01;;;;;;;48.08;25.42;;;;;;;3.76;44.67;98621.06;5110225;28;20020;-83
2022/03/03 10:57:37;;;;;;;41.53;23.17;;;;;;;3.76;44.74;98614.81;5109214;28;20032;-85
2022/03/03 11:00:07;;;;;;;41.10;22.30;;;;;;;3.82;45.93;98616.53;5109597;28;20383;-87
2022/03/03 11:02:34;;;;;;;44.75;20.70;;;;;;;3.89;45.49;98614.47;5109695;28;20038;-88
2022/03/03 11:05:00;;;;;;;50.58;24.25;;;;;;;3.86;43.75;98610.38;5109841;28;20035;-89
2022/03/03 11:07:25;;;;;;;56.00;28.48;;;;;;;3.79;42.93;98607.00;5109479;28;20023;-87
2022/03/03 11:09:51;;;;;;;41.28;21.88;;;;;;;3.86;43.10;98602.25;5107041;28;20039;-85
2022/03/03 11:12:19;;;;;;;33.95;19.02;;;;;;;3.90;43.29;98605.25;5111170;28;20069;-85
2022/03/03 11:14:45;;;;;;;34.58;18.08;;;;;;;3.96;43.45;98596.13;5114508;28;20031;-86
2022/03/03 11:17:11;;;;;;;39.45;20.25;;;;;;;4.13;42.83;98596.09;5114041;28;20036;-87
2022/03/03 11:19:41;;;;;;;35.33;18.63;;;;;;;4.31;43.45;98589.53;5094442;28;20410;-84
2022/03/03 11:22:07;;;;;;;40.60;19.58;;;;;;;4.55;41.56;98589.28;5113889;28;20039;-78
2022/03/03 11:24:37;;;;;;;33.92;17.88;;;;;;;4.68;39.60;98585.38;5110127;28;20034;-81